createdAt,value
2023-11-11T00:01:17.106Z,99604.13
2023-11-11T00:03:45.082Z,99600.75
2023-11-11T00:06:14.412Z,99601.09
2023-11-11T00:08:42.192Z,99609.56
2023-11-11T00:11:10.139Z,99611.03
2023-11-11T00:13:38.043Z,99601.78
2023-11-11T00:16:06.896Z,99605.81
2023-11-11T00:18:38.040Z,99603.03
2023-11-11T00:21:06.874Z,99600.97
2023-11-11T00:23:38.521Z,99608.97
2023-11-11T00:26:06.413Z,99594.09
2023-11-11T00:28:34.503Z,99597.97
2023-11-11T00:31:02.333Z,99591.31
2023-11-11T00:33:30.512Z,99599.56
2023-11-11T00:35:58.309Z,99598.50
2023-11-11T00:38:27.210Z,99598.72
2023-11-11T00:40:56.371Z,99592.75
2023-11-11T00:43:24.214Z,99600.81
2023-11-11T00:45:54.336Z,99603.22
2023-11-11T00:48:22.237Z,99600.97
2023-11-11T00:50:50.084Z,99607.94
2023-11-11T00:53:17.835Z,99604.09
2023-11-11T00:55:45.887Z,99598.56
2023-11-11T00:58:16.144Z,99599.66
2023-11-11T01:00:44.871Z,99606.53
2023-11-11T01:03:13.968Z,99608.03
2023-11-11T01:05:42.695Z,99611.16
2023-11-11T01:08:10.871Z,99611.53
2023-11-11T01:10:41.787Z,99603.31
2023-11-11T01:13:10.545Z,99602.19
2023-11-11T01:15:39.900Z,99603.63
2023-11-11T01:18:08.135Z,99611.53
2023-11-11T01:20:36.105Z,99613.25
2023-11-11T01:23:04.410Z,99602.78
2023-11-11T01:25:33.451Z,99609.56
2023-11-11T01:28:01.949Z,99608.31
2023-11-11T01:30:30.151Z,99608.72
2023-11-11T01:32:59.437Z,99602.56
2023-11-11T01:35:27.277Z,99612.25
2023-11-11T01:37:55.049Z,99615.72
2023-11-11T01:40:23.390Z,99614.41
2023-11-11T01:42:51.465Z,99616.00
2023-11-11T01:45:19.727Z,99618.72
2023-11-11T01:47:47.956Z,99611.53
2023-11-11T01:50:18.282Z,99619.97
2023-11-11T01:52:47.431Z,99620.56
2023-11-11T01:55:15.444Z,99619.03
2023-11-11T01:57:43.327Z,99623.75
2023-11-11T02:00:14.257Z,99615.13
2023-11-11T02:02:42.474Z,99623.22
2023-11-11T02:05:10.408Z,99628.34
2023-11-11T02:07:41.690Z,99627.66
2023-11-11T02:10:11.173Z,99632.50
2023-11-11T02:12:39.267Z,99636.28
2023-11-11T02:15:09.819Z,99637.78
2023-11-11T02:17:37.767Z,99637.53
2023-11-11T02:20:07.037Z,99638.50
2023-11-11T02:22:34.881Z,99638.38
2023-11-11T02:25:08.032Z,99648.50
2023-11-11T02:27:35.876Z,99644.56
2023-11-11T02:30:05.398Z,99648.22
2023-11-11T02:32:34.005Z,99650.50
2023-11-11T02:35:01.752Z,99653.97
2023-11-11T02:37:29.719Z,99655.47
2023-11-11T02:39:57.490Z,99657.34
2023-11-11T02:42:26.768Z,99648.69
2023-11-11T02:44:54.806Z,99658.41
2023-11-11T02:47:22.690Z,99656.78
2023-11-11T02:49:50.562Z,99658.84
2023-11-11T02:52:18.360Z,99654.88
2023-11-11T02:54:47.026Z,99662.47
2023-11-11T02:57:14.872Z,99655.75
2023-11-11T02:59:44.215Z,99651.41
2023-11-11T03:02:12.490Z,99648.84
2023-11-11T03:04:40.476Z,99650.69
2023-11-11T03:07:08.416Z,99651.53
2023-11-11T03:09:36.307Z,99656.81
2023-11-11T03:12:04.642Z,99662.97
2023-11-11T03:14:32.580Z,99659.19
2023-11-11T03:17:02.203Z,99658.03
2023-11-11T03:19:31.378Z,99658.72
2023-11-11T03:21:59.554Z,99664.19
2023-11-11T03:24:27.507Z,99672.25
2023-11-11T03:26:55.484Z,99675.38
2023-11-11T03:29:23.438Z,99685.66
2023-11-11T03:31:51.322Z,99684.72
2023-11-11T03:34:20.507Z,99687.44
2023-11-11T03:36:48.502Z,99687.25
2023-11-11T03:39:18.149Z,99687.56
2023-11-11T03:41:46.062Z,99685.66
2023-11-11T03:44:14.936Z,99679.75
2023-11-11T03:46:42.757Z,99673.03
2023-11-11T03:49:10.662Z,99670.19
2023-11-11T03:51:39.783Z,99673.03
2023-11-11T03:54:08.130Z,99676.00
2023-11-11T03:56:36.032Z,99674.50
2023-11-11T03:59:04.349Z,99676.88
2023-11-11T04:01:35.831Z,99679.78
2023-11-11T04:04:04.204Z,99676.59
2023-11-11T04:06:32.163Z,99680.47
2023-11-11T04:09:01.289Z,99685.41
2023-11-11T04:11:29.375Z,99682.94
2023-11-11T04:14:00.286Z,99697.78
2023-11-11T04:16:30.899Z,99696.09
2023-11-11T04:18:58.916Z,99701.56
2023-11-11T04:21:27.264Z,99707.06
2023-11-11T04:23:55.657Z,99708.00
2023-11-11T04:26:24.963Z,99705.72
2023-11-11T04:28:52.797Z,99709.88
2023-11-11T04:31:21.933Z,99711.13
2023-11-11T04:33:49.988Z,99714.81
2023-11-11T04:36:18.464Z,99714.31
2023-11-11T04:38:46.472Z,99718.78
2023-11-11T04:41:14.894Z,99721.53
2023-11-11T04:43:44.184Z,99731.16
2023-11-11T04:46:12.389Z,99726.13
2023-11-11T04:48:40.355Z,99730.22
2023-11-11T04:51:08.251Z,99731.91
2023-11-11T04:53:36.037Z,99739.00
2023-11-11T04:56:04.354Z,99737.03
2023-11-11T04:58:32.391Z,99750.63
2023-11-11T05:01:01.509Z,99747.97
2023-11-11T05:03:29.437Z,99754.69
2023-11-11T05:05:57.421Z,99747.69
2023-11-11T05:08:25.232Z,99754.69
2023-11-11T05:10:53.877Z,99760.19
2023-11-11T05:13:22.405Z,99759.41
2023-11-11T05:16:00.525Z,99762.81
2023-11-11T05:18:34.118Z,99762.81
2023-11-11T05:21:02.350Z,99774.91
2023-11-11T05:23:33.203Z,99787.56
2023-11-11T05:26:01.015Z,99788.78
2023-11-11T05:28:28.785Z,99784.34
2023-11-11T05:30:56.610Z,99780.00
2023-11-11T05:33:24.457Z,99781.91
2023-11-11T05:35:53.956Z,99784.75
2023-11-11T05:38:21.839Z,99791.72
2023-11-11T05:40:50.386Z,99788.81
2023-11-11T05:43:18.143Z,99788.03
2023-11-11T05:45:46.013Z,99795.13
2023-11-11T05:48:14.144Z,99798.44
2023-11-11T05:50:41.990Z,99795.31
2023-11-11T05:53:11.205Z,99790.41
2023-11-11T05:55:38.969Z,99797.78
2023-11-11T05:58:06.820Z,99797.41
2023-11-11T06:00:34.682Z,99795.13
2023-11-11T06:03:02.820Z,99803.72
2023-11-11T06:05:30.862Z,99807.34
2023-11-11T06:07:58.773Z,99811.78
2023-11-11T06:10:28.144Z,99816.09
2023-11-11T06:12:56.593Z,99811.66
2023-11-11T06:15:23.766Z,99825.75
2023-11-11T06:17:51.734Z,99818.31
2023-11-11T06:20:20.453Z,99824.72
2023-11-11T06:23:45.423Z,99835.00
2023-11-11T06:25:40.075Z,99839.19
2023-11-11T06:28:08.663Z,99829.72
2023-11-11T06:30:36.549Z,99847.59
2023-11-11T06:33:04.736Z,99852.59
2023-11-11T06:35:33.547Z,99854.28
2023-11-11T06:38:01.462Z,99860.66
2023-11-11T06:40:29.537Z,99860.72
2023-11-11T06:42:58.781Z,99858.84
2023-11-11T06:45:26.840Z,99857.59
2023-11-11T06:47:54.990Z,99866.31
2023-11-11T06:50:24.756Z,99859.13
2023-11-11T06:52:52.692Z,99857.03
2023-11-11T06:55:20.873Z,99868.03
2023-11-11T06:57:48.756Z,99866.22
2023-11-11T07:00:20.217Z,99879.84
2023-11-11T07:02:48.692Z,99880.09
2023-11-11T07:05:16.704Z,99889.19
2023-11-11T07:07:44.469Z,99881.25
2023-11-11T07:10:13.419Z,99892.69
2023-11-11T07:12:41.461Z,99893.81
2023-11-11T07:15:11.695Z,99894.69
2023-11-11T07:17:42.786Z,99900.16
2023-11-11T07:20:13.525Z,99896.53
2023-11-11T07:22:41.513Z,99906.97
2023-11-11T07:25:10.459Z,99899.28
2023-11-11T07:27:38.513Z,99911.78
2023-11-11T07:30:11.215Z,99911.78
2023-11-11T07:32:50.221Z,99923.13
2023-11-11T07:35:24.810Z,99926.53
2023-11-11T07:37:53.921Z,99924.84
2023-11-11T07:40:21.790Z,99921.44
2023-11-11T07:42:52.290Z,99920.38
2023-11-11T07:45:24.626Z,99920.19
2023-11-11T07:47:54.543Z,99906.66
2023-11-11T07:50:23.351Z,99907.81
2023-11-11T07:52:52.293Z,99907.00
2023-11-11T07:55:20.319Z,99911.84
2023-11-11T08:00:20.666Z,99916.28
2023-11-11T08:02:49.126Z,99935.28
2023-11-11T08:05:18.947Z,99943.31
2023-11-11T08:07:46.999Z,99954.94
2023-11-11T08:10:14.928Z,99950.31
2023-11-11T08:12:42.969Z,99957.00
2023-11-11T08:15:12.143Z,99965.44
2023-11-11T08:17:40.064Z,99969.50
2023-11-11T08:20:12.711Z,99973.38
2023-11-11T08:22:42.013Z,99971.03
2023-11-11T08:25:12.993Z,99964.22
2023-11-11T08:27:41.487Z,99974.44
2023-11-11T08:30:11.424Z,99966.03
2023-11-11T08:32:41.153Z,99963.69
2023-11-11T08:35:10.171Z,99955.47
2023-11-11T08:37:38.767Z,99944.50
2023-11-11T08:40:11.745Z,99947.53
2023-11-11T08:42:40.648Z,99950.75
2023-11-11T08:45:11.291Z,99961.16
2023-11-11T08:47:40.422Z,99963.22
2023-11-11T08:50:11.368Z,99959.25
2023-11-11T08:52:40.106Z,99966.38
2023-11-11T08:55:10.285Z,99965.81
2023-11-11T08:57:38.287Z,99972.41
2023-11-11T09:00:11.081Z,99976.00
2023-11-11T09:02:39.234Z,99973.47
2023-11-11T09:05:08.012Z,99969.03
2023-11-11T09:07:36.183Z,99964.59
2023-11-11T09:10:05.988Z,99970.38
2023-11-11T09:12:40.426Z,99962.31
2023-11-11T09:15:10.375Z,99978.22
2023-11-11T09:17:38.364Z,99966.19
2023-11-11T09:20:10.239Z,99972.50
2023-11-11T09:22:38.304Z,99972.16
2023-11-11T09:25:07.648Z,99978.00
2023-11-11T09:27:37.191Z,100011.59
2023-11-11T09:30:06.976Z,100015.56
2023-11-11T09:32:34.949Z,100022.38
2023-11-11T09:35:04.210Z,100014.34
2023-11-11T09:37:34.876Z,100019.34
2023-11-11T09:40:07.751Z,100020.19
2023-11-11T09:42:38.427Z,100017.94
2023-11-11T09:47:42.660Z,100021.25
2023-11-11T09:50:12.424Z,100015.19
2023-11-11T09:52:41.167Z,100007.72
2023-11-11T09:55:11.030Z,100003.38
2023-11-11T09:57:41.921Z,100001.09
2023-11-11T10:00:13.122Z,100013.00
2023-11-11T10:02:41.183Z,100016.22
2023-11-11T10:05:10.756Z,100022.50
2023-11-11T10:07:39.153Z,100027.25
2023-11-11T10:10:10.340Z,100022.91
2023-11-11T10:12:41.366Z,100025.78
2023-11-11T10:15:11.728Z,100033.91
2023-11-11T10:17:41.198Z,100027.66
2023-11-11T10:20:15.515Z,100020.00
2023-11-11T10:22:46.023Z,100031.38
2023-11-11T10:25:15.801Z,100035.78
2023-11-11T10:27:51.001Z,100040.75
2023-11-11T10:30:20.604Z,100027.69
2023-11-11T10:32:50.871Z,100021.69
2023-11-11T10:35:19.188Z,100009.38
2023-11-11T10:37:50.546Z,100013.28
2023-11-11T10:40:19.885Z,100010.91
2023-11-11T10:42:50.479Z,100012.03
2023-11-11T10:45:18.920Z,100017.25
2023-11-11T10:47:48.131Z,100014.13
2023-11-11T10:50:17.105Z,100020.06
2023-11-11T10:52:45.551Z,100015.81
2023-11-11T10:55:14.623Z,100008.63
2023-11-11T10:57:43.884Z,100020.84
2023-11-11T11:00:21.731Z,100029.25
2023-11-11T11:02:53.614Z,100027.25
2023-11-11T11:05:31.231Z,100015.56
2023-11-11T11:08:07.946Z,100018.38
2023-11-11T11:10:46.358Z,100017.13
2023-11-11T11:13:17.388Z,100030.34
2023-11-11T11:15:47.118Z,100032.81
2023-11-11T11:18:23.794Z,100037.38
2023-11-11T11:20:54.646Z,100037.19
2023-11-11T11:23:23.420Z,100023.34
2023-11-11T11:25:53.013Z,100029.91
2023-11-11T11:28:26.972Z,100034.72
2023-11-11T11:31:00.566Z,100048.34
2023-11-11T11:33:30.223Z,100044.88
2023-11-11T11:36:05.367Z,100041.63
2023-11-11T11:38:35.303Z,100036.91
2023-11-11T11:41:07.212Z,100040.41
2023-11-11T11:43:36.226Z,100035.00
2023-11-11T11:46:06.435Z,100043.41
2023-11-11T11:48:35.289Z,100037.28
2023-11-11T11:51:11.456Z,100033.38
2023-11-11T11:53:42.633Z,100033.84
2023-11-11T11:56:15.537Z,100037.25
2023-11-11T11:58:48.702Z,100027.88
2023-11-11T12:01:29.226Z,100027.69
2023-11-11T12:03:58.237Z,100033.59
2023-11-11T12:06:27.612Z,100025.63
2023-11-11T12:08:57.276Z,100030.78
2023-11-11T12:11:26.932Z,100028.25
2023-11-11T12:13:55.616Z,100033.53
2023-11-11T12:16:39.729Z,100024.84
2023-11-11T12:19:15.101Z,100036.16
2023-11-11T12:21:45.349Z,100041.03
2023-11-11T12:24:14.570Z,100041.28
2023-11-11T12:26:43.615Z,100045.91
2023-11-11T12:29:12.563Z,100047.69
2023-11-11T12:31:49.224Z,100039.84
2023-11-11T12:34:19.694Z,100037.75
2023-11-11T12:36:48.419Z,100041.13
2023-11-11T12:39:16.912Z,100045.34
2023-11-11T12:41:48.395Z,100057.84
2023-11-11T12:44:16.927Z,100052.34
2023-11-11T12:46:45.576Z,100058.78
2023-11-11T12:49:17.273Z,100055.25
2023-11-11T12:51:45.237Z,100051.63
2023-11-11T12:54:14.158Z,100040.19
2023-11-11T12:56:53.755Z,100053.59
2023-11-11T12:59:21.906Z,100057.28
2023-11-11T13:01:51.439Z,100054.38
2023-11-11T13:04:21.576Z,100065.22
2023-11-11T13:06:50.688Z,100076.66
2023-11-11T13:09:21.230Z,100072.56
2023-11-11T13:11:50.136Z,100071.53
2023-11-11T13:14:20.176Z,100065.16
2023-11-11T13:16:51.849Z,100066.84
2023-11-11T13:19:23.113Z,100070.56
2023-11-11T13:21:50.943Z,100078.16
2023-11-11T13:24:20.590Z,100080.03
2023-11-11T13:26:48.424Z,100087.66
2023-11-11T13:29:17.124Z,100094.34
2023-11-11T13:31:47.541Z,100087.81
2023-11-11T13:34:19.123Z,100093.03
2023-11-11T13:36:48.816Z,100083.00
2023-11-11T13:39:23.752Z,100085.75
2023-11-11T13:41:52.465Z,100093.03
2023-11-11T13:44:20.312Z,100084.19
2023-11-11T13:46:48.684Z,100085.97
2023-11-11T13:49:16.570Z,100087.88
2023-11-11T13:51:46.347Z,100079.09
2023-11-11T13:54:16.130Z,100083.34
2023-11-11T13:56:44.949Z,100098.34
2023-11-11T13:59:13.613Z,100101.50
2023-11-11T14:01:43.694Z,100095.13
2023-11-11T14:04:11.998Z,100098.75
2023-11-11T14:06:40.030Z,100099.47
2023-11-11T14:09:09.949Z,100106.38
2023-11-11T14:11:39.120Z,100106.47
2023-11-11T14:14:07.347Z,100109.09
2023-11-11T14:16:35.437Z,100112.22
2023-11-11T14:19:03.424Z,100110.81
2023-11-11T14:21:34.272Z,100113.59
2023-11-11T14:24:04.418Z,100111.97
2023-11-11T14:26:32.681Z,100119.63
2023-11-11T14:29:02.133Z,100122.94
2023-11-11T14:31:33.502Z,100122.53
2023-11-11T14:34:07.232Z,100130.66
2023-11-11T14:36:39.708Z,100123.31
2023-11-11T14:39:09.863Z,100120.50
2023-11-11T14:41:38.617Z,100106.56
2023-11-11T14:44:08.243Z,100121.66
2023-11-11T14:46:38.371Z,100131.28
2023-11-11T14:49:10.504Z,100136.88
2023-11-11T14:51:38.726Z,100148.81
2023-11-11T14:54:06.910Z,100161.69
2023-11-11T14:56:36.015Z,100153.94
2023-11-11T14:59:04.296Z,100150.34
2023-11-11T15:01:33.841Z,100162.59
2023-11-11T15:04:02.295Z,100175.59
2023-11-11T15:06:33.590Z,100169.00
2023-11-11T15:09:01.913Z,100169.97
2023-11-11T15:11:29.739Z,100179.38
2023-11-11T15:13:59.404Z,100170.84
2023-11-11T15:16:30.761Z,100175.13
2023-11-11T15:19:00.855Z,100165.19
2023-11-11T15:21:28.833Z,100161.88
2023-11-11T15:23:56.820Z,100160.81
2023-11-11T15:26:24.908Z,100171.97
2023-11-11T15:28:52.803Z,100164.84
2023-11-11T15:31:27.783Z,100164.84
2023-11-11T15:33:56.095Z,100164.09
2023-11-11T15:36:27.238Z,100164.78
2023-11-11T15:38:55.631Z,100169.22
2023-11-11T15:41:23.677Z,100164.59
2023-11-11T15:43:51.636Z,100176.16
2023-11-11T15:46:20.370Z,100177.41
2023-11-11T15:48:48.199Z,100180.91
2023-11-11T15:51:22.794Z,100179.88
2023-11-11T15:53:53.898Z,100186.63
2023-11-11T15:56:21.964Z,100190.78
2023-11-11T15:58:50.447Z,100200.28
2023-11-11T16:01:19.842Z,100199.81
2023-11-11T16:03:50.325Z,100205.13
2023-11-11T16:06:18.371Z,100208.41
2023-11-11T16:08:46.874Z,100213.66
2023-11-11T16:11:18.017Z,100223.72
2023-11-11T16:13:45.983Z,100229.78
2023-11-11T16:16:17.941Z,100226.00
2023-11-11T16:18:45.810Z,100223.91
2023-11-11T16:21:20.373Z,100223.44
2023-11-11T16:23:48.258Z,100226.03
2023-11-11T16:26:17.781Z,100228.84
2023-11-11T16:28:45.573Z,100224.78
2023-11-11T16:31:21.209Z,100225.06
2023-11-11T16:33:49.178Z,100226.88
2023-11-11T16:36:17.048Z,100228.50
2023-11-11T16:38:46.013Z,100232.47
2023-11-11T16:41:13.919Z,100239.25
2023-11-11T16:43:43.467Z,100234.16
2023-11-11T16:46:11.532Z,100232.91
2023-11-11T16:48:39.817Z,100239.19
2023-11-11T16:51:08.453Z,100231.22
2023-11-11T16:53:36.373Z,100234.91
2023-11-11T16:56:07.195Z,100240.78
2023-11-11T16:58:37.012Z,100246.75
2023-11-11T17:01:07.879Z,100259.09
2023-11-11T17:03:38.548Z,100254.81
2023-11-11T17:06:09.893Z,100261.56
2023-11-11T17:08:38.358Z,100255.56
2023-11-11T17:11:09.033Z,100266.53
2023-11-11T17:13:38.664Z,100257.75
2023-11-11T17:16:10.215Z,100262.94
2023-11-11T17:18:38.315Z,100264.19
2023-11-11T17:21:07.044Z,100275.38
2023-11-11T17:23:34.924Z,100280.28
2023-11-11T17:26:02.920Z,100262.19
2023-11-11T17:28:32.480Z,100270.22
2023-11-11T17:31:00.729Z,100273.19
2023-11-11T17:33:38.257Z,100271.56
2023-11-11T17:36:09.597Z,100275.63
2023-11-11T17:38:39.817Z,100278.56
2023-11-11T17:41:08.321Z,100281.03
2023-11-11T17:43:36.174Z,100278.28
2023-11-11T17:46:05.926Z,100275.09
2023-11-11T17:48:36.512Z,100276.31
2023-11-11T17:51:06.177Z,100283.38
2023-11-11T17:53:34.334Z,100290.75
2023-11-11T17:56:02.515Z,100288.53
2023-11-11T17:58:30.745Z,100285.47
2023-11-11T18:01:00.087Z,100290.69
2023-11-11T18:03:27.957Z,100293.19
2023-11-11T18:05:57.208Z,100283.31
2023-11-11T18:08:25.018Z,100289.38
2023-11-11T18:10:52.918Z,100288.41
2023-11-11T18:13:22.614Z,100285.34
2023-11-11T18:15:50.534Z,100293.22
2023-11-11T18:18:18.679Z,100290.66
2023-11-11T18:20:47.215Z,100292.19
2023-11-11T18:23:16.403Z,100296.09
2023-11-11T18:25:44.434Z,100301.75
2023-11-11T18:28:13.647Z,100301.28
2023-11-11T18:30:42.505Z,100299.56
2023-11-11T18:33:12.509Z,100306.84
2023-11-11T18:35:40.902Z,100305.31
2023-11-11T18:38:08.843Z,100309.09
2023-11-11T18:40:38.337Z,100315.16
2023-11-11T18:43:06.531Z,100320.94
2023-11-11T18:45:34.360Z,100322.19
2023-11-11T18:48:02.539Z,100320.94
2023-11-11T18:50:30.665Z,100326.06
2023-11-11T18:52:58.701Z,100327.22
2023-11-11T18:55:26.909Z,100333.03
2023-11-11T18:57:56.701Z,100330.16
2023-11-11T19:00:24.676Z,100329.06
2023-11-11T19:02:53.606Z,100326.06
2023-11-11T19:05:22.625Z,100329.78
2023-11-11T19:07:50.604Z,100332.66
2023-11-11T19:10:18.758Z,100334.78
2023-11-11T19:12:46.551Z,100338.22
2023-11-11T19:15:15.903Z,100338.28
2023-11-11T19:17:44.028Z,100342.25
2023-11-11T19:20:13.175Z,100342.56
2023-11-11T19:22:41.146Z,100341.56
2023-11-11T19:25:09.206Z,100342.72
2023-11-11T19:27:37.612Z,100337.53
2023-11-11T19:30:06.426Z,100343.72
2023-11-11T19:32:35.560Z,100341.13
2023-11-11T19:35:03.894Z,100339.81
2023-11-11T19:37:31.829Z,100343.25
2023-11-11T19:39:59.792Z,100352.19
2023-11-11T19:42:27.564Z,100350.19
2023-11-11T19:44:55.463Z,100352.72
2023-11-11T19:47:23.370Z,100354.44
2023-11-11T19:49:52.812Z,100355.44
2023-11-11T19:52:20.932Z,100359.19
2023-11-11T19:54:49.095Z,100359.56
2023-11-11T19:57:17.173Z,100371.09
2023-11-11T19:59:45.061Z,100361.09
2023-11-11T20:02:13.024Z,100367.19
2023-11-11T20:04:41.943Z,100365.34
2023-11-11T20:07:11.184Z,100365.34
2023-11-11T20:09:39.019Z,100369.50
2023-11-11T20:12:06.557Z,100354.38
2023-11-11T20:14:34.480Z,100367.31
2023-11-11T20:17:04.768Z,100359.25
2023-11-11T20:19:32.591Z,100356.00
2023-11-11T20:22:00.453Z,100361.34
2023-11-11T20:24:29.840Z,100362.88
2023-11-11T20:26:57.661Z,100350.69
2023-11-11T20:29:25.386Z,100357.34
2023-11-11T20:31:53.367Z,100353.31
2023-11-11T20:34:21.217Z,100348.69
2023-11-11T20:36:49.033Z,100347.31
2023-11-11T20:39:16.918Z,100342.50
2023-11-11T20:41:46.107Z,100342.34
2023-11-11T20:44:14.003Z,100337.16
2023-11-11T20:46:42.841Z,100347.16
2023-11-11T20:49:10.664Z,100343.09
2023-11-11T20:51:44.791Z,100345.63
2023-11-11T20:54:14.019Z,100337.25
2023-11-11T20:56:42.189Z,100333.66
2023-11-11T20:59:11.454Z,100327.31
2023-11-11T21:01:39.406Z,100324.91
2023-11-11T21:04:07.681Z,100320.84
2023-11-11T21:06:35.504Z,100329.44
2023-11-11T21:09:04.546Z,100326.81
2023-11-11T21:11:32.376Z,100329.38
2023-11-11T21:14:00.364Z,100324.06
2023-11-11T21:16:29.671Z,100325.66
2023-11-11T21:18:57.529Z,100327.69
2023-11-11T21:21:25.375Z,100327.84
2023-11-11T21:23:53.480Z,100322.06
2023-11-11T21:26:22.105Z,100327.69
2023-11-11T21:28:50.340Z,100323.09
2023-11-11T21:31:18.159Z,100319.72
2023-11-11T21:33:48.147Z,100320.94
2023-11-11T21:36:15.995Z,100319.72
2023-11-11T21:38:43.944Z,100317.84
2023-11-11T21:41:12.365Z,100315.84
2023-11-11T21:43:40.295Z,100322.00
2023-11-11T21:46:08.076Z,100329.59
2023-11-11T21:48:38.182Z,100327.56
2023-11-11T21:51:09.414Z,100331.63
2023-11-11T21:53:37.236Z,100333.88
2023-11-11T21:56:06.052Z,100341.44
2023-11-11T21:58:34.048Z,100330.97
2023-11-11T22:01:01.886Z,100327.22
2023-11-11T22:03:29.800Z,100333.38
2023-11-11T22:05:58.841Z,100333.56
2023-11-11T22:08:28.416Z,100325.66
2023-11-11T22:10:57.435Z,100319.34
2023-11-11T22:13:25.620Z,100322.25
2023-11-11T22:15:53.584Z,100316.94
2023-11-11T22:18:40.406Z,100327.25
2023-11-11T22:21:08.416Z,100324.16
2023-11-11T22:23:37.578Z,100323.53
2023-11-11T22:26:06.929Z,100329.31
2023-11-11T22:28:35.421Z,100325.38
2023-11-11T22:31:03.452Z,100324.50
2023-11-11T22:33:31.401Z,100327.09
2023-11-11T22:35:59.315Z,100321.97
2023-11-11T22:38:27.192Z,100318.66
2023-11-11T22:40:56.570Z,100320.44
2023-11-11T22:43:42.100Z,100318.34
2023-11-11T22:46:10.068Z,100313.56
2023-11-11T22:48:39.179Z,100324.38
2023-11-11T22:51:06.971Z,100321.44
2023-11-11T22:53:34.836Z,100318.34
2023-11-11T22:56:04.351Z,100324.38
2023-11-11T22:58:33.616Z,100313.59
2023-11-11T23:01:01.517Z,100309.16
2023-11-11T23:03:31.066Z,100309.47
2023-11-11T23:05:59.327Z,100312.41
2023-11-11T23:08:27.751Z,100309.47
2023-11-11T23:10:55.677Z,100314.44
2023-11-11T23:13:25.255Z,100314.09
2023-11-11T23:15:54.680Z,100313.41
2023-11-11T23:18:23.062Z,100326.25
2023-11-11T23:20:52.684Z,100316.81
2023-11-11T23:23:25.061Z,100323.50
2023-11-11T23:25:52.870Z,100324.72
2023-11-11T23:28:21.853Z,100324.91
2023-11-11T23:30:52.399Z,100329.50
2023-11-11T23:33:20.192Z,100334.31
2023-11-11T23:35:48.870Z,100324.25
2023-11-11T23:38:16.906Z,100337.06
2023-11-11T23:40:44.912Z,100330.53
2023-11-11T23:43:13.823Z,100329.69
2023-11-11T23:45:41.666Z,100331.22
2023-11-11T23:48:12.228Z,100323.88
2023-11-11T23:50:41.009Z,100320.81
2023-11-11T23:53:08.911Z,100320.47
2023-11-11T23:55:36.770Z,100325.56
2023-11-11T23:58:04.659Z,100328.53
